createdAt,value
2022-08-26T00:00:42.422Z,11.57
2022-08-26T00:05:49.008Z,9.90
2022-08-26T00:10:54.690Z,12.70
2022-08-26T00:16:01.154Z,12.65
2022-08-26T00:21:09.938Z,13.13
2022-08-26T00:26:16.809Z,12.10
2022-08-26T00:31:22.284Z,11.30
2022-08-26T00:36:29.583Z,10.55
2022-08-26T00:41:36.021Z,12.52
2022-08-26T00:46:52.734Z,11.23
2022-08-26T00:52:02.960Z,10.32
2022-08-26T00:57:15.979Z,10.23
2022-08-26T01:02:22.753Z,9.85
2022-08-26T01:07:34.762Z,9.48
2022-08-26T01:12:56.918Z,9.23
2022-08-26T01:18:04.924Z,8.95
2022-08-26T01:23:13.806Z,10.25
2022-08-26T01:28:25.147Z,9.98
2022-08-26T01:34:18.373Z,11.80
2022-08-26T01:39:25.338Z,9.25
2022-08-26T01:44:35.323Z,8.45
2022-08-26T01:49:40.896Z,9.15
2022-08-26T01:54:50.557Z,9.15
2022-08-26T02:00:00.394Z,10.55
2022-08-26T02:05:08.527Z,8.80
2022-08-26T02:10:15.812Z,10.40
2022-08-26T02:15:22.600Z,8.35
2022-08-26T02:20:28.615Z,8.52
2022-08-26T02:25:42.541Z,7.53
2022-08-26T02:30:48.971Z,8.38
2022-08-26T02:35:54.371Z,6.78
2022-08-26T02:40:59.918Z,7.00
2022-08-26T02:46:05.456Z,6.35
2022-08-26T02:51:11.056Z,6.72
2022-08-26T02:56:19.270Z,5.35
2022-08-26T03:01:31.865Z,6.88
2022-08-26T03:06:52.611Z,6.82
2022-08-26T03:11:59.385Z,6.22
2022-08-26T03:17:05.972Z,8.10
2022-08-26T03:22:12.670Z,5.70
2022-08-26T03:27:20.588Z,5.10
2022-08-26T03:32:27.110Z,5.35
2022-08-26T03:37:32.699Z,5.13
2022-08-26T03:42:40.820Z,4.40
2022-08-26T03:47:51.310Z,4.82
2022-08-26T03:52:59.516Z,4.82
2022-08-26T03:58:05.587Z,6.45
2022-08-26T04:03:16.935Z,4.78
2022-08-26T04:08:24.171Z,5.80
2022-08-26T04:13:34.299Z,5.32
2022-08-26T04:18:40.562Z,4.75
2022-08-26T04:23:53.501Z,4.55
2022-08-26T04:28:59.070Z,3.50
2022-08-26T04:34:05.580Z,4.20
2022-08-26T04:39:13.730Z,4.53
2022-08-26T04:44:20.231Z,5.25
2022-08-26T04:49:27.509Z,4.10
2022-08-26T04:54:32.799Z,3.58
2022-08-26T04:59:39.456Z,4.07
2022-08-26T05:04:45.639Z,3.47
2022-08-26T05:09:51.229Z,3.35
2022-08-26T05:14:56.990Z,3.20
2022-08-26T05:20:02.859Z,3.78
2022-08-26T05:25:09.830Z,3.33
2022-08-26T05:30:16.243Z,2.70
2022-08-26T05:35:21.505Z,2.60
2022-08-26T05:40:28.744Z,1.83
2022-08-26T05:45:35.400Z,2.22
2022-08-26T05:50:46.655Z,3.30
2022-08-26T05:55:55.661Z,2.17
2022-08-26T06:01:02.880Z,2.83
2022-08-26T06:06:20.839Z,3.30
2022-08-26T06:11:34.447Z,3.15
2022-08-26T06:16:45.458Z,2.45
2022-08-26T06:21:54.160Z,2.78
2022-08-26T06:27:03.433Z,2.90
2022-08-26T06:32:09.826Z,2.58
2022-08-26T06:37:16.784Z,2.00
2022-08-26T06:42:22.442Z,3.00
2022-08-26T06:47:28.771Z,3.05
2022-08-26T06:52:35.329Z,2.90
2022-08-26T06:57:41.280Z,2.40
2022-08-26T07:02:47.572Z,3.83
2022-08-26T07:07:54.086Z,2.22
2022-08-26T07:13:00.261Z,2.67
2022-08-26T07:18:06.131Z,2.22
2022-08-26T07:23:12.910Z,2.97
2022-08-26T07:28:18.277Z,2.97
2022-08-26T07:33:24.648Z,3.05
2022-08-26T07:38:30.733Z,2.40
2022-08-26T07:43:40.431Z,2.00
2022-08-26T07:48:48.540Z,2.35
2022-08-26T07:53:54.644Z,2.10
2022-08-26T07:59:00.901Z,1.70
2022-08-26T08:04:08.138Z,1.60
2022-08-26T08:09:16.954Z,2.45
2022-08-26T08:14:22.898Z,3.88
2022-08-26T08:19:36.704Z,2.17
2022-08-26T08:29:51.673Z,2.45
2022-08-26T08:34:58.115Z,2.50
2022-08-26T08:40:04.022Z,2.40
2022-08-26T08:45:35.931Z,1.55
2022-08-26T08:51:11.235Z,2.00
2022-08-26T08:56:40.701Z,2.72
2022-08-26T09:02:04.993Z,3.75
2022-08-26T09:07:50.224Z,2.58
2022-08-26T09:12:56.974Z,2.30
2022-08-26T09:18:13.250Z,2.88
2022-08-26T09:23:19.412Z,3.45
2022-08-26T09:28:27.412Z,12.13
2022-08-26T09:33:34.781Z,2.70
2022-08-26T09:38:40.691Z,6.85
2022-08-26T09:44:14.464Z,3.10
2022-08-26T09:49:41.113Z,2.53
2022-08-26T09:54:47.887Z,2.50
2022-08-26T09:59:53.664Z,3.10
2022-08-26T10:05:09.158Z,3.53
2022-08-26T10:10:46.621Z,3.80
2022-08-26T10:16:03.971Z,6.82
2022-08-26T10:21:27.141Z,3.90
2022-08-26T10:27:03.023Z,3.70
2022-08-26T10:32:28.312Z,6.88
2022-08-26T10:37:40.888Z,4.33
2022-08-26T10:43:12.729Z,2.38
2022-08-26T10:48:36.126Z,4.70
2022-08-26T10:53:54.520Z,4.45
2022-08-26T10:59:21.448Z,2.97
2022-08-26T11:04:50.112Z,3.92
2022-08-26T11:09:56.489Z,4.90
2022-08-26T11:15:05.229Z,4.10
2022-08-26T11:20:14.008Z,3.72
2022-08-26T11:25:21.299Z,3.63
2022-08-26T11:30:28.593Z,3.58
2022-08-26T11:35:48.361Z,4.05
2022-08-26T11:41:14.404Z,3.17
2022-08-26T11:46:37.158Z,4.15
2022-08-26T11:51:46.354Z,4.60
2022-08-26T11:56:54.956Z,4.47
2022-08-26T12:02:02.084Z,3.70
2022-08-26T12:07:10.267Z,3.33
2022-08-26T12:12:25.437Z,3.30
2022-08-26T12:17:31.560Z,4.17
2022-08-26T12:22:48.393Z,3.70
2022-08-26T12:27:54.655Z,3.20
2022-08-26T12:33:22.152Z,1.90
2022-08-26T12:38:29.658Z,2.88
2022-08-26T12:43:42.991Z,6.05
2022-08-26T12:48:51.944Z,4.40
2022-08-26T12:53:58.902Z,3.78
2022-08-26T12:59:08.844Z,4.50
2022-08-26T13:04:40.053Z,4.35
2022-08-26T13:09:45.679Z,5.32
2022-08-26T13:20:00.051Z,3.63
2022-08-26T13:25:08.433Z,5.15
2022-08-26T13:35:20.044Z,2.40
2022-08-26T13:40:30.204Z,5.28
2022-08-26T13:45:38.626Z,4.93
2022-08-26T13:50:44.574Z,4.47
2022-08-26T13:55:50.727Z,6.18
2022-08-26T14:00:59.677Z,6.47
2022-08-26T14:06:05.355Z,6.82
2022-08-26T14:16:26.223Z,5.93
2022-08-26T14:21:36.948Z,5.65
2022-08-26T14:26:43.276Z,5.60
2022-08-26T14:31:49.934Z,5.03
2022-08-26T14:36:55.122Z,4.18
2022-08-26T14:42:01.731Z,4.63
2022-08-26T14:47:08.249Z,5.05
2022-08-26T14:52:14.016Z,4.22
2022-08-26T14:57:19.280Z,4.32
2022-08-26T15:02:32.570Z,4.80
2022-08-26T15:07:40.207Z,4.30
2022-08-26T15:12:46.501Z,4.70
2022-08-26T15:17:51.607Z,4.40
2022-08-26T15:22:57.552Z,4.60
2022-08-26T15:28:08.466Z,6.07
2022-08-26T15:33:15.003Z,4.72
2022-08-26T15:38:21.216Z,4.80
2022-08-26T15:48:35.016Z,5.30
2022-08-26T15:58:45.425Z,4.85
2022-08-26T16:08:57.658Z,4.47
2022-08-26T16:14:03.332Z,5.20
2022-08-26T16:24:15.157Z,5.37
2022-08-26T16:29:20.837Z,4.72
2022-08-26T16:34:26.290Z,6.07
2022-08-26T16:39:31.955Z,5.13
2022-08-26T16:44:45.827Z,5.72
2022-08-26T16:49:51.727Z,5.43
2022-08-26T16:54:57.123Z,5.68
2022-08-26T17:00:07.958Z,5.22
2022-08-26T17:05:14.793Z,5.32
2022-08-26T17:10:20.985Z,6.10
2022-08-26T17:15:27.126Z,5.63
2022-08-26T17:20:32.963Z,5.45
2022-08-26T17:30:43.653Z,5.88
2022-08-26T17:35:49.243Z,5.97
2022-08-26T17:40:55.037Z,5.78
2022-08-26T17:46:06.612Z,6.22
2022-08-26T17:51:15.394Z,6.07
2022-08-26T17:56:25.695Z,6.05
2022-08-26T18:01:31.491Z,6.00
2022-08-26T18:06:36.900Z,7.65
2022-08-26T18:11:43.058Z,6.25
2022-08-26T18:16:48.710Z,5.40
2022-08-26T18:21:54.863Z,5.43
2022-08-26T18:27:00.469Z,5.80
2022-08-26T18:32:06.268Z,6.53
2022-08-26T18:42:25.535Z,6.55
2022-08-26T18:47:31.629Z,7.07
2022-08-26T18:52:37.531Z,6.72
2022-08-26T18:57:42.780Z,4.38
2022-08-26T19:02:52.027Z,4.40
2022-08-26T19:08:00.843Z,5.40
2022-08-26T19:13:06.960Z,5.70
2022-08-26T19:18:16.063Z,4.63
2022-08-26T19:23:31.626Z,6.72
2022-08-26T19:28:38.491Z,6.43
2022-08-26T19:33:46.974Z,6.90
2022-08-26T19:38:52.905Z,5.80
2022-08-26T19:44:00.265Z,6.60
2022-08-26T19:49:06.308Z,8.13
2022-08-26T19:54:11.869Z,8.70
2022-08-26T19:59:17.495Z,6.82
2022-08-26T20:09:27.741Z,6.28
2022-08-26T20:14:34.980Z,6.30
2022-08-26T20:19:59.060Z,5.75
2022-08-26T20:25:04.625Z,6.80
2022-08-26T20:35:16.237Z,5.63
2022-08-26T20:40:22.788Z,5.75
2022-08-26T20:45:28.147Z,5.72
2022-08-26T20:50:34.666Z,6.20
2022-08-26T20:55:40.588Z,5.35
2022-08-26T21:00:46.572Z,6.53
2022-08-26T21:05:52.068Z,5.82
2022-08-26T21:16:02.926Z,5.25
2022-08-26T21:21:10.557Z,6.10
2022-08-26T21:26:17.784Z,5.88
2022-08-26T21:31:25.546Z,4.22
2022-08-26T21:36:31.059Z,5.72
2022-08-26T21:41:36.792Z,5.70
2022-08-26T21:51:50.074Z,6.30
2022-08-26T21:56:55.807Z,7.35
